Pineland, FL

5:47 AM EDT on October 24, 2014 (GMT -0400)
Pine Island | Change Station
CLOSE
Current Station
Personal Weather Station
Location: Bokeelia, FL
Elevation: 26 ft
Nearby Weather Stations

Elev 26 ft 26.68 °N, 82.15 °W | Updated 14 minutes ago

Clear
Clear
67.8 °F
Feels Like 67.8 °F
N
4.2
Wind Variable Wind from East

Today
High -- | Low -- °F
--% Chance of Precip.
Yesterday
High -- | Low -- °F
Precip. -- in
7:33 AM 6:52 PM
New Moon, 0% visible
Pressure 29.88 in
Visibility 10.0 miles
Clouds Clear
Dew Point 60 °F
Humidity 75%
Rainfall 0.00 in
Snow Depth Not available.
UV 0 out of 12
Pollen 6.40 out of 12
Air Quality Not available.
Flu Activity Local Activity
METAR KFMY 240853Z AUTO 04009KT 10SM CLR 18/14 A2988 RMK AO2 SLP119 T01780144 56015

More Conditions Fewer Conditions

Pressure 29.88 in
Visibility 10.0 miles
Clouds Clear
Dew Point 60 °F
Humidity 75%
Rainfall 0.00 in
Snow Depth Not available.
UV 0 out of 12
Pollen 6.40 out of 12
Air Quality Not available.
Flu Activity Local Activity
METAR KFMY 240853Z AUTO 04009KT 10SM CLR 18/14 A2988 RMK AO2 SLP119 T01780144 56015

More Conditions Fewer Conditions

10-Day Weather Forecast

Almanac

Astronomy

Oct. 24, 2014 Rise Set
Actual Time 7:33 AM EDT 6:52 PM EDT
Civil Twilight 7:09 AM EDT 7:15 PM EDT
Nautical Twilight 6:42 AM EDT 7:42 PM EDT
Astronomical Twilight 6:15 AM EDT 8:09 PM EDT
Moon 8:08 AM EDT 7:35 PM EDT
Length of Visible Light 12h 06m
Length of Day
11h 19m
Tomorrow will be 1m 27s shorter.
New Moon, 0% of the Moon is Illuminated
Today
New Moon
Oct 30
First Quarter
Nov 6
Full
Nov 14
Last Quarter
Nov 22
New

Today's Extremes

State Highs State Lows

Community

WunderPhotos

Upload Photos

1,764,513 photos uploaded!

WunderBlogs® & News

Nearby

Snow Depth

Station Depth Elevation
No new snow has been reported.

Earthquake Activity

City Distance Mag. Time & Date
No recent earthquake activity has been reported nearby.
Minimum magnitude displayed is 2.5.

Coastal Water Temperatures

Place Temperature
No Stations Reporting

Nearby Weather Stations